createdAt,value
2022-12-11T00:00:59.137Z,6.20
2022-12-11T00:04:01.601Z,4.20
2022-12-11T00:07:04.234Z,3.65
2022-12-11T00:10:07.542Z,4.47
2022-12-11T00:13:09.963Z,4.28
2022-12-11T00:16:12.581Z,3.88
2022-12-11T00:19:15.825Z,3.43
2022-12-11T00:22:18.271Z,4.68
2022-12-11T00:25:20.742Z,5.10
2022-12-11T00:28:23.614Z,4.32
2022-12-11T00:31:26.298Z,4.90
2022-12-11T00:34:28.763Z,4.05
2022-12-11T00:37:31.160Z,3.47
2022-12-11T00:40:36.370Z,5.23
2022-12-11T00:43:40.249Z,6.35
2022-12-11T00:46:42.663Z,5.82
2022-12-11T00:49:49.593Z,3.27
2022-12-11T00:52:52.438Z,5.75
2022-12-11T00:55:55.032Z,3.20
2022-12-11T00:58:57.513Z,5.05
2022-12-11T01:02:01.084Z,4.60
2022-12-11T01:05:04.132Z,4.95
2022-12-11T01:08:07.282Z,5.00
2022-12-11T01:11:12.519Z,4.40
2022-12-11T01:14:14.922Z,3.83
2022-12-11T01:17:17.764Z,4.35
2022-12-11T01:20:22.384Z,4.13
2022-12-11T01:23:24.812Z,4.38
2022-12-11T01:26:27.336Z,4.85
2022-12-11T01:29:29.817Z,5.70
2022-12-11T01:32:32.753Z,5.30
2022-12-11T01:35:35.150Z,3.95
2022-12-11T01:38:37.761Z,3.85
2022-12-11T01:41:40.253Z,2.73
2022-12-11T01:44:42.647Z,5.47
2022-12-11T01:47:45.100Z,4.78
2022-12-11T01:50:56.191Z,4.50
2022-12-11T01:54:09.809Z,2.92
2022-12-11T01:57:14.012Z,3.30
2022-12-11T02:00:17.084Z,3.08
2022-12-11T02:03:20.100Z,3.08
2022-12-11T02:06:37.886Z,3.40
2022-12-11T02:09:43.242Z,2.92
2022-12-11T02:13:05.102Z,4.33
2022-12-11T02:16:22.620Z,3.20
2022-12-11T02:19:52.294Z,2.33
2022-12-11T02:23:13.145Z,3.57
2022-12-11T02:26:24.181Z,2.25
2022-12-11T02:29:32.796Z,3.38
2022-12-11T02:32:42.026Z,3.67
2022-12-11T02:35:46.169Z,3.45
2022-12-11T02:38:52.497Z,3.20
2022-12-11T02:41:56.520Z,2.97
2022-12-11T02:45:01.607Z,3.47
2022-12-11T02:48:06.475Z,3.33
2022-12-11T02:51:10.970Z,3.97
2022-12-11T02:54:22.496Z,2.77
2022-12-11T02:57:53.160Z,2.00
2022-12-11T03:00:55.809Z,4.18
2022-12-11T03:03:58.560Z,1.50
2022-12-11T03:07:12.042Z,4.22
2022-12-11T03:10:18.727Z,3.97
2022-12-11T03:13:23.281Z,3.17
2022-12-11T03:16:35.782Z,4.27
2022-12-11T03:19:45.838Z,3.22
2022-12-11T03:23:09.475Z,3.25
2022-12-11T03:26:15.113Z,3.33
2022-12-11T03:29:24.797Z,4.93
2022-12-11T03:32:36.185Z,2.75
2022-12-11T03:35:44.004Z,3.33
2022-12-11T03:38:50.987Z,4.07
2022-12-11T03:41:55.821Z,3.67
2022-12-11T03:45:00.295Z,5.05
2022-12-11T03:48:03.308Z,2.13
2022-12-11T03:51:06.692Z,2.40
2022-12-11T03:54:10.282Z,1.92
2022-12-11T03:57:16.666Z,3.63
2022-12-11T04:00:21.031Z,2.40
2022-12-11T04:03:23.969Z,2.58
2022-12-11T04:06:26.467Z,3.22
2022-12-11T04:09:29.126Z,4.90
2022-12-11T04:12:31.522Z,4.63
2022-12-11T04:15:34.518Z,3.33
2022-12-11T04:18:55.918Z,3.60
2022-12-11T04:22:16.635Z,3.38
2022-12-11T04:25:19.207Z,4.60
2022-12-11T04:28:21.652Z,4.43
2022-12-11T04:31:24.397Z,3.72
2022-12-11T04:34:26.869Z,3.05
2022-12-11T04:37:29.371Z,4.35
2022-12-11T04:40:31.768Z,5.18
2022-12-11T04:43:34.575Z,4.18
2022-12-11T04:46:36.999Z,4.05
2022-12-11T04:49:39.448Z,4.80
2022-12-11T04:52:42.862Z,4.57
2022-12-11T04:55:45.247Z,3.95
2022-12-11T04:58:48.353Z,4.63
2022-12-11T05:01:50.973Z,3.25
2022-12-11T05:04:53.452Z,4.38
2022-12-11T05:07:55.932Z,3.22
2022-12-11T05:11:04.547Z,3.10
2022-12-11T05:14:06.952Z,3.85
2022-12-11T05:17:09.405Z,3.00
2022-12-11T05:20:11.969Z,5.70
2022-12-11T05:23:14.446Z,2.95
2022-12-11T05:26:20.081Z,4.80
2022-12-11T05:29:22.511Z,4.97
2022-12-11T05:32:25.089Z,4.27
2022-12-11T05:35:27.536Z,2.90
2022-12-11T05:38:30.902Z,3.75
2022-12-11T05:41:33.358Z,3.40
2022-12-11T05:44:35.967Z,2.85
2022-12-11T05:47:38.354Z,2.80
2022-12-11T05:50:41.067Z,4.18
2022-12-11T05:53:44.915Z,2.93
2022-12-11T05:56:51.148Z,3.38
2022-12-11T05:59:53.572Z,4.57
2022-12-11T06:02:56.036Z,3.73
2022-12-11T06:06:02.887Z,5.25
2022-12-11T06:09:06.553Z,3.45
2022-12-11T06:12:09.006Z,3.85
2022-12-11T06:15:11.556Z,4.20
2022-12-11T06:18:14.150Z,5.70
2022-12-11T06:21:23.118Z,4.63
2022-12-11T06:24:25.507Z,5.03
2022-12-11T06:27:28.154Z,5.80
2022-12-11T06:30:37.587Z,4.35
2022-12-11T06:33:42.155Z,6.40
2022-12-11T06:36:44.603Z,4.68
2022-12-11T06:39:47.542Z,6.80
2022-12-11T06:42:49.960Z,8.48
2022-12-11T06:45:53.099Z,9.13
2022-12-11T06:48:55.624Z,8.85
2022-12-11T06:51:58.658Z,6.55
2022-12-11T06:55:01.157Z,7.23
2022-12-11T06:58:03.920Z,7.90
2022-12-11T07:01:15.654Z,9.73
2022-12-11T07:04:18.131Z,12.47
2022-12-11T07:07:20.655Z,9.68
2022-12-11T07:10:23.167Z,11.57
2022-12-11T07:13:25.552Z,20.25
2022-12-11T07:16:28.142Z,38.72
2022-12-11T07:19:30.878Z,23.60
2022-12-11T07:22:33.223Z,16.88
2022-12-11T07:25:37.245Z,6.57
2022-12-11T07:28:40.427Z,19.65
2022-12-11T07:31:43.140Z,16.30
2022-12-11T07:34:51.414Z,41.17
2022-12-11T07:37:54.257Z,23.33
2022-12-11T07:41:00.226Z,23.27
2022-12-11T07:44:03.460Z,19.83
2022-12-11T07:47:05.819Z,26.98
2022-12-11T07:50:09.011Z,32.25
2022-12-11T07:53:11.432Z,31.05
2022-12-11T07:56:14.732Z,28.53
2022-12-11T07:59:17.231Z,24.10
2022-12-11T08:02:19.694Z,14.95
2022-12-11T08:05:22.711Z,8.50
2022-12-11T08:08:25.176Z,8.82
2022-12-11T08:11:28.462Z,30.35
2022-12-11T08:14:31.018Z,20.83
2022-12-11T08:17:39.684Z,19.23
2022-12-11T08:20:43.284Z,12.60
2022-12-11T08:23:47.754Z,17.98
2022-12-11T08:26:50.134Z,19.57
2022-12-11T08:29:52.548Z,15.30
2022-12-11T08:32:54.971Z,24.02
2022-12-11T08:35:57.470Z,16.73
2022-12-11T08:39:00.420Z,15.48
2022-12-11T08:42:03.117Z,11.80
2022-12-11T08:45:06.214Z,11.23
2022-12-11T08:48:08.763Z,13.80
2022-12-11T08:51:14.207Z,8.77
2022-12-11T08:54:16.718Z,24.15
2022-12-11T08:57:19.091Z,13.00
2022-12-11T09:00:21.907Z,12.82
2022-12-11T09:03:25.241Z,14.10
2022-12-11T09:06:30.639Z,10.13
2022-12-11T09:09:33.143Z,13.00
2022-12-11T09:12:36.614Z,11.73
2022-12-11T09:15:42.013Z,13.05
2022-12-11T09:18:49.814Z,23.92
2022-12-11T09:21:52.236Z,8.60
2022-12-11T09:24:54.676Z,9.20
2022-12-11T09:27:57.066Z,10.73
2022-12-11T09:30:59.823Z,6.63
2022-12-11T09:34:05.254Z,5.95
2022-12-11T09:37:07.698Z,11.77
2022-12-11T09:40:12.446Z,11.63
2022-12-11T09:43:33.458Z,15.68
2022-12-11T09:46:37.942Z,28.45
2022-12-11T09:49:44.728Z,27.70
2022-12-11T09:52:55.970Z,13.20
2022-12-11T09:56:15.369Z,37.65
2022-12-11T09:59:20.620Z,16.53
2022-12-11T10:02:30.810Z,13.38
2022-12-11T10:06:10.624Z,12.15
2022-12-11T10:09:24.368Z,8.63
2022-12-11T10:12:48.751Z,10.95
2022-12-11T10:16:04.431Z,14.02
2022-12-11T10:19:33.821Z,18.77
2022-12-11T10:22:36.730Z,7.57
2022-12-11T10:25:48.720Z,16.88
2022-12-11T10:28:51.166Z,13.95
2022-12-11T10:31:58.572Z,13.60
2022-12-11T10:35:05.406Z,9.05
2022-12-11T10:38:20.028Z,11.30
2022-12-11T10:41:38.056Z,12.53
2022-12-11T10:44:40.619Z,16.83
2022-12-11T10:47:43.009Z,16.75
2022-12-11T10:50:57.498Z,14.38
2022-12-11T10:54:29.856Z,17.27
2022-12-11T10:57:39.164Z,15.43
2022-12-11T11:00:42.163Z,10.30
2022-12-11T11:03:57.027Z,15.80
2022-12-11T11:07:14.155Z,7.32
2022-12-11T11:10:17.981Z,9.15
2022-12-11T11:13:25.252Z,9.17
2022-12-11T11:16:27.868Z,11.55
2022-12-11T11:19:36.070Z,9.57
2022-12-11T11:22:46.918Z,8.60
2022-12-11T11:25:54.365Z,11.17
2022-12-11T11:28:57.671Z,11.02
2022-12-11T11:32:26.335Z,13.52
2022-12-11T11:35:31.600Z,12.40
2022-12-11T11:38:36.474Z,8.23
2022-12-11T11:41:52.239Z,18.83
2022-12-11T11:45:09.938Z,24.60
2022-12-11T11:48:28.133Z,21.13
2022-12-11T11:51:41.668Z,14.43
2022-12-11T11:54:53.060Z,11.02
2022-12-11T11:58:02.684Z,11.17
2022-12-11T12:01:05.272Z,16.85
2022-12-11T12:04:07.960Z,20.77
2022-12-11T12:07:41.064Z,5.87
2022-12-11T12:11:02.236Z,20.55
2022-12-11T12:14:50.589Z,30.08
2022-12-11T12:17:56.500Z,55.00
2022-12-11T12:20:58.920Z,11.57
2022-12-11T12:24:25.981Z,27.50
2022-12-11T12:27:55.781Z,26.10
2022-12-11T12:31:14.271Z,31.27
2022-12-11T12:34:29.164Z,24.77
2022-12-11T12:37:37.915Z,35.28
2022-12-11T12:40:48.957Z,26.10
2022-12-11T12:44:10.158Z,21.40
2022-12-11T12:47:17.255Z,32.88
2022-12-11T12:50:25.442Z,21.77
2022-12-11T12:53:33.538Z,25.38
2022-12-11T12:56:37.660Z,36.40
2022-12-11T12:59:40.198Z,41.20
2022-12-11T13:02:50.680Z,28.40
2022-12-11T13:05:56.352Z,25.88
2022-12-11T13:09:18.645Z,71.65
2022-12-11T13:12:32.612Z,41.80
2022-12-11T13:15:40.502Z,39.35
2022-12-11T13:18:45.661Z,47.85
2022-12-11T13:22:03.322Z,39.13
2022-12-11T13:25:29.325Z,32.58
2022-12-11T13:28:51.183Z,25.98
2022-12-11T13:32:19.931Z,68.18
2022-12-11T13:35:22.501Z,28.10
2022-12-11T13:38:25.664Z,31.48
2022-12-11T13:41:29.521Z,34.08
2022-12-11T13:44:39.504Z,20.30
2022-12-11T13:47:42.200Z,35.58
2022-12-11T13:50:46.422Z,86.63
2022-12-11T13:53:49.113Z,59.25
2022-12-11T13:57:08.406Z,44.42
2022-12-11T14:00:22.523Z,59.28
2022-12-11T14:03:25.392Z,37.20
2022-12-11T14:06:29.657Z,42.10
2022-12-11T14:09:32.084Z,56.42
2022-12-11T14:12:35.780Z,60.40
2022-12-11T14:15:43.910Z,54.90
2022-12-11T14:18:49.819Z,43.15
2022-12-11T14:22:04.158Z,53.58
2022-12-11T14:25:27.108Z,80.75
2022-12-11T14:28:38.474Z,144.73
2022-12-11T14:31:44.003Z,59.72
2022-12-11T14:34:49.604Z,60.88
2022-12-11T14:37:53.662Z,71.57
2022-12-11T14:41:21.511Z,109.72
2022-12-11T14:44:28.289Z,200.73
2022-12-11T14:47:34.915Z,218.55
2022-12-11T14:50:48.696Z,220.27
2022-12-11T14:53:53.037Z,133.07
2022-12-11T14:56:56.164Z,92.50
2022-12-11T14:59:59.159Z,84.00
2022-12-11T15:03:21.382Z,81.80
2022-12-11T15:06:33.593Z,50.10
2022-12-11T15:09:36.331Z,49.03
2022-12-11T15:12:45.228Z,65.55
2022-12-11T15:15:48.025Z,98.53
2022-12-11T15:18:52.667Z,141.95
2022-12-11T15:22:01.165Z,79.90
2022-12-11T15:25:04.450Z,77.03
2022-12-11T15:28:26.759Z,133.57
2022-12-11T15:31:33.628Z,76.43
2022-12-11T15:35:03.099Z,62.97
2022-12-11T15:38:05.971Z,64.38
2022-12-11T15:41:15.771Z,59.57
2022-12-11T15:44:21.602Z,53.97
2022-12-11T15:47:26.623Z,43.90
2022-12-11T15:50:30.312Z,31.42
2022-12-11T15:53:33.943Z,29.60
2022-12-11T15:56:36.297Z,44.95
2022-12-11T15:59:39.153Z,59.65
2022-12-11T16:02:41.735Z,49.30
2022-12-11T16:05:45.234Z,35.15
2022-12-11T16:08:47.648Z,18.63
2022-12-11T16:11:51.487Z,24.27
2022-12-11T16:14:53.978Z,34.20
2022-12-11T16:18:01.554Z,41.47
2022-12-11T16:21:06.364Z,40.72
2022-12-11T16:24:08.896Z,42.85
2022-12-11T16:27:11.536Z,62.97
2022-12-11T16:30:14.421Z,43.42
2022-12-11T16:33:17.525Z,40.80
2022-12-11T16:36:20.602Z,43.53
2022-12-11T16:39:23.015Z,41.97
2022-12-11T16:42:25.451Z,37.23
2022-12-11T16:45:28.108Z,32.45
2022-12-11T16:48:30.707Z,31.88
2022-12-11T16:51:33.598Z,27.38
2022-12-11T16:54:36.106Z,27.02
2022-12-11T16:57:39.180Z,31.80
2022-12-11T17:00:43.738Z,30.60
2022-12-11T17:03:46.696Z,33.43
2022-12-11T17:06:50.102Z,34.75
2022-12-11T17:09:52.538Z,32.92
2022-12-11T17:12:55.202Z,46.30
2022-12-11T17:15:57.634Z,103.55
2022-12-11T17:19:00.650Z,52.30
2022-12-11T17:22:03.579Z,49.28
2022-12-11T17:25:06.399Z,37.83
2022-12-11T17:28:09.500Z,30.88
2022-12-11T17:31:16.757Z,30.73
2022-12-11T17:34:19.504Z,22.37
2022-12-11T17:37:22.660Z,19.05
2022-12-11T17:40:28.301Z,20.55
2022-12-11T17:43:30.805Z,39.50
2022-12-11T17:46:33.364Z,49.88
2022-12-11T17:49:35.893Z,54.72
2022-12-11T17:52:43.961Z,62.03
2022-12-11T17:55:48.535Z,60.85
2022-12-11T17:58:51.383Z,53.78
2022-12-11T18:01:53.915Z,55.15
2022-12-11T18:04:56.377Z,57.90
2022-12-11T18:07:59.564Z,90.63
2022-12-11T18:11:07.315Z,90.40
2022-12-11T18:14:15.247Z,100.80
2022-12-11T18:17:19.525Z,91.55
2022-12-11T18:20:22.040Z,94.38
2022-12-11T18:23:24.805Z,93.20
2022-12-11T18:26:28.178Z,105.05
2022-12-11T18:29:31.011Z,109.00
2022-12-11T18:32:33.512Z,100.18
2022-12-11T18:35:36.196Z,105.63
2022-12-11T18:38:39.987Z,88.47
2022-12-11T18:41:42.556Z,98.20
2022-12-11T18:44:46.470Z,101.97
2022-12-11T18:47:51.422Z,85.32
2022-12-11T18:50:53.884Z,107.20
2022-12-11T18:53:56.509Z,103.07
2022-12-11T18:56:59.336Z,101.67
2022-12-11T19:00:07.355Z,104.93
2022-12-11T19:03:11.993Z,101.22
2022-12-11T19:06:20.637Z,103.93
2022-12-11T19:09:23.517Z,107.32
2022-12-11T19:12:26.234Z,114.13
2022-12-11T19:15:28.907Z,113.88
2022-12-11T19:18:31.805Z,117.43
2022-12-11T19:21:36.693Z,120.68
2022-12-11T19:24:39.920Z,74.60
2022-12-11T19:27:42.549Z,62.50
2022-12-11T19:30:49.827Z,73.95
2022-12-11T19:33:52.389Z,72.97
2022-12-11T19:36:57.036Z,79.15
2022-12-11T19:39:59.583Z,81.13
2022-12-11T19:43:02.253Z,79.32
2022-12-11T19:46:07.989Z,104.22
2022-12-11T19:49:11.653Z,95.50
2022-12-11T19:52:14.364Z,106.20
2022-12-11T19:55:17.147Z,101.22
2022-12-11T19:58:20.187Z,103.77
2022-12-11T20:01:34.473Z,130.77
2022-12-11T20:04:37.359Z,136.45
2022-12-11T20:07:40.168Z,135.85
2022-12-11T20:10:42.821Z,115.30
2022-12-11T20:13:46.791Z,80.53
2022-12-11T20:17:11.079Z,82.35
2022-12-11T20:20:15.356Z,93.13
2022-12-11T20:23:18.339Z,77.35
2022-12-11T20:26:24.375Z,105.45
2022-12-11T20:29:27.150Z,99.73
2022-12-11T20:32:30.116Z,90.72
2022-12-11T20:35:32.623Z,60.97
2022-12-11T20:38:36.216Z,42.15
2022-12-11T20:41:39.246Z,59.47
2022-12-11T20:44:47.261Z,56.60
2022-12-11T20:47:52.093Z,59.30
2022-12-11T20:51:00.277Z,52.10
2022-12-11T20:54:03.057Z,58.92
2022-12-11T20:57:05.464Z,50.55
2022-12-11T21:00:08.982Z,45.85
2022-12-11T21:03:12.175Z,37.97
2022-12-11T21:06:25.412Z,38.58
2022-12-11T21:09:28.034Z,36.75
2022-12-11T21:12:31.873Z,31.27
2022-12-11T21:15:38.698Z,30.88
2022-12-11T21:18:41.651Z,30.25
2022-12-11T21:21:46.356Z,31.27
2022-12-11T21:24:48.962Z,25.08
2022-12-11T21:27:51.595Z,20.08
2022-12-11T21:31:00.183Z,22.55
2022-12-11T21:34:04.037Z,20.40
2022-12-11T21:37:06.587Z,21.88
2022-12-11T21:40:10.461Z,21.83
2022-12-11T21:43:12.919Z,22.07
2022-12-11T21:46:17.735Z,25.40
2022-12-11T21:49:20.759Z,26.38
2022-12-11T21:52:23.571Z,28.63
2022-12-11T21:55:25.931Z,30.55
2022-12-11T21:58:28.351Z,25.85
2022-12-11T22:01:40.907Z,25.17
2022-12-11T22:04:43.403Z,23.80
2022-12-11T22:07:45.874Z,25.73
2022-12-11T22:10:48.693Z,22.40
2022-12-11T22:13:51.096Z,20.67
2022-12-11T22:16:53.610Z,21.85
2022-12-11T22:19:56.138Z,19.38
2022-12-11T22:22:58.625Z,20.17
2022-12-11T22:26:01.107Z,19.20
2022-12-11T22:29:03.816Z,20.30
2022-12-11T22:32:06.368Z,18.10
2022-12-11T22:35:09.355Z,21.17
2022-12-11T22:38:11.944Z,19.92
2022-12-11T22:41:22.394Z,21.52
2022-12-11T22:44:25.384Z,21.58
2022-12-11T22:47:27.779Z,20.05
2022-12-11T22:50:31.881Z,22.88
2022-12-11T22:53:34.278Z,23.13
2022-12-11T22:56:36.823Z,22.63
2022-12-11T22:59:39.889Z,21.90
2022-12-11T23:02:42.964Z,21.83
2022-12-11T23:05:45.454Z,23.15
2022-12-11T23:08:48.176Z,23.30
2022-12-11T23:11:51.627Z,25.80
2022-12-11T23:14:54.239Z,23.27
2022-12-11T23:17:56.627Z,27.07
2022-12-11T23:20:59.322Z,22.20
2022-12-11T23:24:02.493Z,26.38
2022-12-11T23:27:04.924Z,21.73
2022-12-11T23:30:08.810Z,22.13
2022-12-11T23:33:11.350Z,25.95
2022-12-11T23:36:13.848Z,25.67
2022-12-11T23:39:16.419Z,26.30
2022-12-11T23:42:18.803Z,26.45
2022-12-11T23:45:21.345Z,27.88
2022-12-11T23:48:24.061Z,29.00
2022-12-11T23:51:26.826Z,27.60
2022-12-11T23:54:29.839Z,27.65
2022-12-11T23:57:32.342Z,27.45
